Newlin, Pennsylvania
Current Conditions -  °F | °C
As of 6:35 PM on Monday 22 Dec 2014 (Local Time) from KHZL Reporting Station
Drizzle Drizzle  
Wind Chill: 27°   Ceiling: 200
Heat Index: 34°   Visibility: 1mi
Dew Point: 32°   Wind: 8mph
Humidity: 93%   Direction: 100°E
Pressure: 30.15"   Gusts: NA
Location:  40.8983°N, 76.4239°W
Report Text: KHZL 222335Z AUTO 10007KT 1SM -DZ OVC002 01/00 A3015 RMK AO2
Loading
Personal Weather Stations






























Interactive Weather Map New forecast layout! Learn more

10-Day Weather Forecast

Advertisements
Track Severe Weather on mobile